sensor_id;sensor_type;location;lat;lon;timestamp;P1;durP1;ratioP1;P2;durP2;ratioP2
35418;SDS011;21525;41.240;16.500;2022-08-05T00:01:42;12.20;;;9.27;;
35418;SDS011;21525;41.240;16.500;2022-08-05T00:04:08;10.63;;;9.15;;
35418;SDS011;21525;41.240;16.500;2022-08-05T00:06:34;11.07;;;8.55;;
35418;SDS011;21525;41.240;16.500;2022-08-05T00:09:00;12.98;;;8.52;;
35418;SDS011;21525;41.240;16.500;2022-08-05T00:11:27;10.48;;;8.25;;
35418;SDS011;21525;41.240;16.500;2022-08-05T00:13:53;12.02;;;8.38;;
35418;SDS011;21525;41.240;16.500;2022-08-05T00:16:19;12.85;;;8.73;;
35418;SDS011;21525;41.240;16.500;2022-08-05T00:18:46;15.05;;;8.38;;
35418;SDS011;21525;41.240;16.500;2022-08-05T00:21:12;15.13;;;7.97;;
35418;SDS011;21525;41.240;16.500;2022-08-05T00:23:40;11.00;;;7.88;;
35418;SDS011;21525;41.240;16.500;2022-08-05T00:26:07;11.95;;;8.68;;
35418;SDS011;21525;41.240;16.500;2022-08-05T00:28:33;13.82;;;7.63;;
35418;SDS011;21525;41.240;16.500;2022-08-05T00:31:00;13.15;;;8.18;;
35418;SDS011;21525;41.240;16.500;2022-08-05T00:33:26;14.05;;;8.10;;
35418;SDS011;21525;41.240;16.500;2022-08-05T00:35:52;14.90;;;7.93;;
35418;SDS011;21525;41.240;16.500;2022-08-05T00:38:18;9.68;;;7.32;;
35418;SDS011;21525;41.240;16.500;2022-08-05T00:40:47;12.07;;;7.65;;
35418;SDS011;21525;41.240;16.500;2022-08-05T00:43:15;11.10;;;6.80;;
35418;SDS011;21525;41.240;16.500;2022-08-05T00:45:41;11.23;;;7.30;;
35418;SDS011;21525;41.240;16.500;2022-08-05T00:48:12;11.15;;;6.63;;
35418;SDS011;21525;41.240;16.500;2022-08-05T00:50:40;15.18;;;7.15;;
35418;SDS011;21525;41.240;16.500;2022-08-05T00:53:07;10.10;;;6.53;;
35418;SDS011;21525;41.240;16.500;2022-08-05T00:55:33;12.57;;;7.00;;
35418;SDS011;21525;41.240;16.500;2022-08-05T00:57:59;14.32;;;7.28;;
35418;SDS011;21525;41.240;16.500;2022-08-05T01:00:27;12.48;;;7.30;;
35418;SDS011;21525;41.240;16.500;2022-08-05T01:02:56;15.35;;;7.03;;
35418;SDS011;21525;41.240;16.500;2022-08-05T01:05:23;12.18;;;6.97;;
35418;SDS011;21525;41.240;16.500;2022-08-05T01:07:50;12.38;;;6.45;;
35418;SDS011;21525;41.240;16.500;2022-08-05T01:10:21;11.05;;;6.63;;
35418;SDS011;21525;41.240;16.500;2022-08-05T01:12:54;12.15;;;6.63;;
35418;SDS011;21525;41.240;16.500;2022-08-05T01:15:27;12.77;;;6.65;;
35418;SDS011;21525;41.240;16.500;2022-08-05T01:18:02;11.48;;;6.72;;
35418;SDS011;21525;41.240;16.500;2022-08-05T01:31:11;19.55;;;7.40;;
35418;SDS011;21525;41.240;16.500;2022-08-05T01:33:47;20.42;;;7.32;;
35418;SDS011;21525;41.240;16.500;2022-08-05T01:36:18;20.10;;;8.27;;
35418;SDS011;21525;41.240;16.500;2022-08-05T01:38:49;11.45;;;6.18;;
35418;SDS011;21525;41.240;16.500;2022-08-05T01:41:17;11.68;;;6.38;;
35418;SDS011;21525;41.240;16.500;2022-08-05T01:43:47;10.95;;;5.57;;
35418;SDS011;21525;41.240;16.500;2022-08-05T01:46:15;14.02;;;6.43;;
35418;SDS011;21525;41.240;16.500;2022-08-05T01:48:41;11.52;;;5.97;;
35418;SDS011;21525;41.240;16.500;2022-08-05T01:51:10;14.38;;;7.00;;
35418;SDS011;21525;41.240;16.500;2022-08-05T01:53:39;14.73;;;6.50;;
35418;SDS011;21525;41.240;16.500;2022-08-05T01:56:05;14.43;;;5.95;;
35418;SDS011;21525;41.240;16.500;2022-08-05T01:58:33;15.13;;;5.97;;
35418;SDS011;21525;41.240;16.500;2022-08-05T02:01:01;11.20;;;5.57;;
35418;SDS011;21525;41.240;16.500;2022-08-05T02:03:33;13.43;;;6.72;;
35418;SDS011;21525;41.240;16.500;2022-08-05T02:06:03;10.45;;;5.53;;
35418;SDS011;21525;41.240;16.500;2022-08-05T02:11:04;11.80;;;5.88;;
35418;SDS011;21525;41.240;16.500;2022-08-05T02:13:52;13.30;;;6.40;;
35418;SDS011;21525;41.240;16.500;2022-08-05T02:16:27;12.30;;;6.55;;
35418;SDS011;21525;41.240;16.500;2022-08-05T02:19:16;12.10;;;6.20;;
35418;SDS011;21525;41.240;16.500;2022-08-05T02:21:46;10.40;;;5.63;;
35418;SDS011;21525;41.240;16.500;2022-08-05T02:24:20;12.95;;;6.03;;
35418;SDS011;21525;41.240;16.500;2022-08-05T02:26:50;10.02;;;5.85;;
35418;SDS011;21525;41.240;16.500;2022-08-05T02:29:21;12.88;;;6.20;;
35418;SDS011;21525;41.240;16.500;2022-08-05T02:34:15;25.27;;;7.60;;
35418;SDS011;21525;41.240;16.500;2022-08-05T02:36:53;21.80;;;8.85;;
35418;SDS011;21525;41.240;16.500;2022-08-05T02:39:23;20.83;;;8.13;;
35418;SDS011;21525;41.240;16.500;2022-08-05T02:41:50;26.37;;;17.37;;
35418;SDS011;21525;41.240;16.500;2022-08-05T02:44:18;42.88;;;13.35;;
35418;SDS011;21525;41.240;16.500;2022-08-05T02:46:46;12.50;;;6.18;;
35418;SDS011;21525;41.240;16.500;2022-08-05T02:49:13;8.50;;;4.85;;
35418;SDS011;21525;41.240;16.500;2022-08-05T02:51:41;5.97;;;4.60;;
35418;SDS011;21525;41.240;16.500;2022-08-05T02:54:09;9.95;;;5.40;;
35418;SDS011;21525;41.240;16.500;2022-08-05T02:56:37;11.82;;;4.82;;
35418;SDS011;21525;41.240;16.500;2022-08-05T02:59:04;8.93;;;5.30;;
35418;SDS011;21525;41.240;16.500;2022-08-05T03:01:30;39.15;;;8.23;;
35418;SDS011;21525;41.240;16.500;2022-08-05T03:04:00;12.05;;;5.07;;
35418;SDS011;21525;41.240;16.500;2022-08-05T03:06:27;12.95;;;5.50;;
35418;SDS011;21525;41.240;16.500;2022-08-05T03:08:55;11.85;;;6.18;;
35418;SDS011;21525;41.240;16.500;2022-08-05T03:11:22;13.52;;;5.93;;
35418;SDS011;21525;41.240;16.500;2022-08-05T03:13:49;13.60;;;6.97;;
35418;SDS011;21525;41.240;16.500;2022-08-05T03:16:15;13.85;;;7.00;;
35418;SDS011;21525;41.240;16.500;2022-08-05T03:18:41;9.43;;;6.20;;
35418;SDS011;21525;41.240;16.500;2022-08-05T03:21:07;11.90;;;6.00;;
35418;SDS011;21525;41.240;16.500;2022-08-05T03:23:34;15.10;;;8.07;;
35418;SDS011;21525;41.240;16.500;2022-08-05T03:26:02;22.35;;;13.32;;
35418;SDS011;21525;41.240;16.500;2022-08-05T03:28:29;16.77;;;9.10;;
35418;SDS011;21525;41.240;16.500;2022-08-05T03:30:56;14.13;;;6.88;;
35418;SDS011;21525;41.240;16.500;2022-08-05T03:33:23;12.70;;;7.47;;
35418;SDS011;21525;41.240;16.500;2022-08-05T03:35:52;17.80;;;9.68;;
35418;SDS011;21525;41.240;16.500;2022-08-05T03:38:20;15.93;;;9.13;;
35418;SDS011;21525;41.240;16.500;2022-08-05T03:40:47;13.98;;;8.27;;
35418;SDS011;21525;41.240;16.500;2022-08-05T03:43:13;16.45;;;9.57;;
35418;SDS011;21525;41.240;16.500;2022-08-05T03:45:39;15.40;;;9.52;;
35418;SDS011;21525;41.240;16.500;2022-08-05T03:48:05;15.88;;;9.05;;
35418;SDS011;21525;41.240;16.500;2022-08-05T03:50:40;18.50;;;10.00;;
35418;SDS011;21525;41.240;16.500;2022-08-05T03:53:08;14.35;;;10.00;;
35418;SDS011;21525;41.240;16.500;2022-08-05T03:55:39;18.45;;;10.48;;
35418;SDS011;21525;41.240;16.500;2022-08-05T03:58:11;31.10;;;20.95;;
35418;SDS011;21525;41.240;16.500;2022-08-05T04:00:41;27.33;;;17.27;;
35418;SDS011;21525;41.240;16.500;2022-08-05T04:03:08;20.02;;;12.40;;
35418;SDS011;21525;41.240;16.500;2022-08-05T04:08:08;30.50;;;11.68;;
35418;SDS011;21525;41.240;16.500;2022-08-05T04:10:35;16.40;;;9.48;;
35418;SDS011;21525;41.240;16.500;2022-08-05T04:13:02;25.67;;;9.73;;
35418;SDS011;21525;41.240;16.500;2022-08-05T04:15:28;28.95;;;11.00;;
35418;SDS011;21525;41.240;16.500;2022-08-05T04:17:54;35.72;;;13.13;;
35418;SDS011;21525;41.240;16.500;2022-08-05T04:20:21;39.97;;;16.25;;
35418;SDS011;21525;41.240;16.500;2022-08-05T04:22:48;38.35;;;15.85;;
35418;SDS011;21525;41.240;16.500;2022-08-05T04:25:14;25.45;;;14.73;;
35418;SDS011;21525;41.240;16.500;2022-08-05T04:27:40;35.90;;;12.63;;
35418;SDS011;21525;41.240;16.500;2022-08-05T04:30:07;31.80;;;12.45;;
35418;SDS011;21525;41.240;16.500;2022-08-05T04:32:34;31.00;;;14.27;;
35418;SDS011;21525;41.240;16.500;2022-08-05T04:35:00;26.55;;;12.77;;
35418;SDS011;21525;41.240;16.500;2022-08-05T04:37:26;19.52;;;12.45;;
35418;SDS011;21525;41.240;16.500;2022-08-05T04:39:52;29.48;;;15.75;;
35418;SDS011;21525;41.240;16.500;2022-08-05T04:42:18;33.60;;;18.17;;
35418;SDS011;21525;41.240;16.500;2022-08-05T04:44:44;34.53;;;16.00;;
35418;SDS011;21525;41.240;16.500;2022-08-05T04:47:09;32.63;;;15.65;;
35418;SDS011;21525;41.240;16.500;2022-08-05T04:49:36;33.40;;;15.18;;
35418;SDS011;21525;41.240;16.500;2022-08-05T04:52:03;37.37;;;18.37;;
35418;SDS011;21525;41.240;16.500;2022-08-05T04:54:29;32.95;;;15.65;;
35418;SDS011;21525;41.240;16.500;2022-08-05T04:56:55;44.67;;;16.77;;
35418;SDS011;21525;41.240;16.500;2022-08-05T04:59:21;36.70;;;13.85;;
35418;SDS011;21525;41.240;16.500;2022-08-05T05:01:47;31.48;;;13.32;;
35418;SDS011;21525;41.240;16.500;2022-08-05T05:04:14;28.35;;;11.85;;
35418;SDS011;21525;41.240;16.500;2022-08-05T05:06:40;29.40;;;11.95;;
35418;SDS011;21525;41.240;16.500;2022-08-05T05:09:06;28.27;;;12.70;;
35418;SDS011;21525;41.240;16.500;2022-08-05T05:11:32;36.40;;;13.13;;
35418;SDS011;21525;41.240;16.500;2022-08-05T05:13:58;42.10;;;14.82;;
35418;SDS011;21525;41.240;16.500;2022-08-05T05:16:24;39.75;;;13.23;;
35418;SDS011;21525;41.240;16.500;2022-08-05T05:18:50;38.53;;;13.43;;
35418;SDS011;21525;41.240;16.500;2022-08-05T05:21:15;50.28;;;14.27;;
35418;SDS011;21525;41.240;16.500;2022-08-05T05:23:41;51.80;;;15.43;;
35418;SDS011;21525;41.240;16.500;2022-08-05T05:26:07;48.80;;;15.05;;
35418;SDS011;21525;41.240;16.500;2022-08-05T05:28:34;49.33;;;14.80;;
35418;SDS011;21525;41.240;16.500;2022-08-05T05:31:01;43.92;;;15.57;;
35418;SDS011;21525;41.240;16.500;2022-08-05T05:33:27;46.28;;;15.48;;
35418;SDS011;21525;41.240;16.500;2022-08-05T05:35:53;43.60;;;14.23;;
35418;SDS011;21525;41.240;16.500;2022-08-05T05:38:19;44.35;;;16.50;;
35418;SDS011;21525;41.240;16.500;2022-08-05T05:40:44;45.35;;;21.83;;
35418;SDS011;21525;41.240;16.500;2022-08-05T05:43:10;49.63;;;22.88;;
35418;SDS011;21525;41.240;16.500;2022-08-05T05:45:36;42.35;;;22.73;;
35418;SDS011;21525;41.240;16.500;2022-08-05T05:48:02;35.05;;;21.88;;
35418;SDS011;21525;41.240;16.500;2022-08-05T05:50:31;43.97;;;22.10;;
35418;SDS011;21525;41.240;16.500;2022-08-05T05:52:58;40.78;;;23.27;;
35418;SDS011;21525;41.240;16.500;2022-08-05T05:55:24;38.47;;;23.45;;
35418;SDS011;21525;41.240;16.500;2022-08-05T05:57:50;38.65;;;21.25;;
35418;SDS011;21525;41.240;16.500;2022-08-05T06:00:17;32.55;;;17.52;;
35418;SDS011;21525;41.240;16.500;2022-08-05T06:02:45;27.05;;;15.98;;
35418;SDS011;21525;41.240;16.500;2022-08-05T06:05:12;23.97;;;13.60;;
35418;SDS011;21525;41.240;16.500;2022-08-05T06:07:40;23.30;;;11.02;;
35418;SDS011;21525;41.240;16.500;2022-08-05T06:10:07;22.02;;;10.52;;
35418;SDS011;21525;41.240;16.500;2022-08-05T06:12:34;16.02;;;8.65;;
35418;SDS011;21525;41.240;16.500;2022-08-05T06:15:01;16.80;;;8.27;;
35418;SDS011;21525;41.240;16.500;2022-08-05T06:19:55;17.10;;;8.23;;
35418;SDS011;21525;41.240;16.500;2022-08-05T06:22:21;19.13;;;7.97;;
35418;SDS011;21525;41.240;16.500;2022-08-05T06:27:14;22.00;;;11.38;;
35418;SDS011;21525;41.240;16.500;2022-08-05T06:29:40;17.30;;;7.85;;
35418;SDS011;21525;41.240;16.500;2022-08-05T06:32:07;17.08;;;7.88;;
35418;SDS011;21525;41.240;16.500;2022-08-05T06:34:33;15.23;;;8.25;;
35418;SDS011;21525;41.240;16.500;2022-08-05T06:36:59;15.05;;;7.30;;
35418;SDS011;21525;41.240;16.500;2022-08-05T06:39:25;18.02;;;7.55;;
35418;SDS011;21525;41.240;16.500;2022-08-05T06:41:51;18.98;;;7.32;;
35418;SDS011;21525;41.240;16.500;2022-08-05T06:44:17;17.50;;;8.15;;
35418;SDS011;21525;41.240;16.500;2022-08-05T06:46:43;19.25;;;8.40;;
35418;SDS011;21525;41.240;16.500;2022-08-05T06:49:09;17.63;;;7.97;;
35418;SDS011;21525;41.240;16.500;2022-08-05T06:51:35;17.42;;;8.27;;
35418;SDS011;21525;41.240;16.500;2022-08-05T06:54:01;21.33;;;9.25;;
35418;SDS011;21525;41.240;16.500;2022-08-05T06:56:29;15.57;;;7.90;;
35418;SDS011;21525;41.240;16.500;2022-08-05T07:01:22;15.85;;;8.02;;
35418;SDS011;21525;41.240;16.500;2022-08-05T07:03:48;17.33;;;8.43;;
35418;SDS011;21525;41.240;16.500;2022-08-05T07:06:14;17.02;;;8.23;;
35418;SDS011;21525;41.240;16.500;2022-08-05T07:08:41;16.75;;;9.00;;
35418;SDS011;21525;41.240;16.500;2022-08-05T07:11:07;16.10;;;8.88;;
35418;SDS011;21525;41.240;16.500;2022-08-05T07:13:33;17.95;;;8.00;;
35418;SDS011;21525;41.240;16.500;2022-08-05T07:16:18;18.80;;;8.95;;
35418;SDS011;21525;41.240;16.500;2022-08-05T07:19:03;16.33;;;8.98;;
35418;SDS011;21525;41.240;16.500;2022-08-05T07:21:28;16.77;;;8.75;;
35418;SDS011;21525;41.240;16.500;2022-08-05T07:23:55;15.15;;;8.48;;
35418;SDS011;21525;41.240;16.500;2022-08-05T07:26:21;15.02;;;8.50;;
35418;SDS011;21525;41.240;16.500;2022-08-05T07:28:47;15.85;;;8.57;;
35418;SDS011;21525;41.240;16.500;2022-08-05T07:31:15;16.13;;;9.85;;
35418;SDS011;21525;41.240;16.500;2022-08-05T07:33:41;20.50;;;8.32;;
35418;SDS011;21525;41.240;16.500;2022-08-05T07:36:08;16.63;;;7.97;;
35418;SDS011;21525;41.240;16.500;2022-08-05T07:38:34;14.50;;;8.30;;
35418;SDS011;21525;41.240;16.500;2022-08-05T07:41:06;12.75;;;8.43;;
35418;SDS011;21525;41.240;16.500;2022-08-05T07:43:34;13.13;;;7.65;;
35418;SDS011;21525;41.240;16.500;2022-08-05T07:46:00;13.32;;;9.05;;
35418;SDS011;21525;41.240;16.500;2022-08-05T07:48:26;18.48;;;8.73;;
35418;SDS011;21525;41.240;16.500;2022-08-05T07:50:52;10.93;;;7.93;;
35418;SDS011;21525;41.240;16.500;2022-08-05T07:53:17;13.32;;;8.27;;
35418;SDS011;21525;41.240;16.500;2022-08-05T07:55:43;17.00;;;8.43;;
35418;SDS011;21525;41.240;16.500;2022-08-05T07:58:09;12.82;;;8.05;;
35418;SDS011;21525;41.240;16.500;2022-08-05T08:00:35;13.52;;;8.32;;
35418;SDS011;21525;41.240;16.500;2022-08-05T08:03:01;12.98;;;7.45;;
35418;SDS011;21525;41.240;16.500;2022-08-05T08:05:27;15.30;;;7.80;;
35418;SDS011;21525;41.240;16.500;2022-08-05T08:07:53;13.68;;;7.97;;
35418;SDS011;21525;41.240;16.500;2022-08-05T08:10:22;13.98;;;8.52;;
35418;SDS011;21525;41.240;16.500;2022-08-05T08:12:48;14.43;;;8.52;;
35418;SDS011;21525;41.240;16.500;2022-08-05T08:15:14;14.90;;;9.13;;
35418;SDS011;21525;41.240;16.500;2022-08-05T08:17:41;20.27;;;9.88;;
35418;SDS011;21525;41.240;16.500;2022-08-05T08:20:10;12.82;;;7.50;;
35418;SDS011;21525;41.240;16.500;2022-08-05T08:22:37;11.27;;;7.28;;
35418;SDS011;21525;41.240;16.500;2022-08-05T08:25:04;11.10;;;6.78;;
35418;SDS011;21525;41.240;16.500;2022-08-05T08:27:31;12.68;;;7.65;;
35418;SDS011;21525;41.240;16.500;2022-08-05T08:29:57;15.35;;;8.25;;
35418;SDS011;21525;41.240;16.500;2022-08-05T08:32:23;15.50;;;8.10;;
35418;SDS011;21525;41.240;16.500;2022-08-05T08:34:49;16.48;;;8.07;;
35418;SDS011;21525;41.240;16.500;2022-08-05T08:37:15;13.48;;;6.55;;
35418;SDS011;21525;41.240;16.500;2022-08-05T08:39:42;13.50;;;7.00;;
35418;SDS011;21525;41.240;16.500;2022-08-05T08:42:08;14.07;;;6.88;;
35418;SDS011;21525;41.240;16.500;2022-08-05T08:44:35;16.95;;;7.90;;
35418;SDS011;21525;41.240;16.500;2022-08-05T08:47:02;16.15;;;7.45;;
35418;SDS011;21525;41.240;16.500;2022-08-05T08:49:28;20.88;;;8.98;;
35418;SDS011;21525;41.240;16.500;2022-08-05T08:52:07;14.02;;;7.53;;
35418;SDS011;21525;41.240;16.500;2022-08-05T08:54:41;16.05;;;7.10;;
35418;SDS011;21525;41.240;16.500;2022-08-05T08:57:08;12.80;;;7.53;;
35418;SDS011;21525;41.240;16.500;2022-08-05T08:59:35;15.10;;;7.33;;
35418;SDS011;21525;41.240;16.500;2022-08-05T09:02:03;14.43;;;7.63;;
35418;SDS011;21525;41.240;16.500;2022-08-05T09:04:34;15.32;;;7.38;;
35418;SDS011;21525;41.240;16.500;2022-08-05T09:07:04;12.57;;;8.02;;
35418;SDS011;21525;41.240;16.500;2022-08-05T09:09:34;12.95;;;6.90;;
35418;SDS011;21525;41.240;16.500;2022-08-05T09:12:02;11.93;;;6.50;;
35418;SDS011;21525;41.240;16.500;2022-08-05T09:14:30;13.25;;;5.88;;
35418;SDS011;21525;41.240;16.500;2022-08-05T09:16:58;13.93;;;5.75;;
35418;SDS011;21525;41.240;16.500;2022-08-05T09:19:24;8.80;;;6.50;;
35418;SDS011;21525;41.240;16.500;2022-08-05T09:21:50;13.85;;;7.63;;
35418;SDS011;21525;41.240;16.500;2022-08-05T09:24:16;19.55;;;6.97;;
35418;SDS011;21525;41.240;16.500;2022-08-05T09:26:45;11.10;;;5.70;;
35418;SDS011;21525;41.240;16.500;2022-08-05T09:29:23;8.80;;;5.80;;
35418;SDS011;21525;41.240;16.500;2022-08-05T09:32:03;10.13;;;5.68;;
35418;SDS011;21525;41.240;16.500;2022-08-05T09:34:46;8.27;;;5.90;;
35418;SDS011;21525;41.240;16.500;2022-08-05T09:37:17;12.35;;;6.05;;
35418;SDS011;21525;41.240;16.500;2022-08-05T09:39:45;12.23;;;6.93;;
35418;SDS011;21525;41.240;16.500;2022-08-05T09:42:11;9.57;;;6.57;;
35418;SDS011;21525;41.240;16.500;2022-08-05T09:44:49;13.13;;;7.15;;
35418;SDS011;21525;41.240;16.500;2022-08-05T09:47:20;9.52;;;6.47;;
35418;SDS011;21525;41.240;16.500;2022-08-05T09:49:51;16.23;;;7.07;;
35418;SDS011;21525;41.240;16.500;2022-08-05T09:55:07;13.15;;;6.72;;
35418;SDS011;21525;41.240;16.500;2022-08-05T09:57:38;10.85;;;7.68;;
35418;SDS011;21525;41.240;16.500;2022-08-05T10:02:36;13.18;;;7.43;;
35418;SDS011;21525;41.240;16.500;2022-08-05T10:05:05;17.75;;;7.25;;
35418;SDS011;21525;41.240;16.500;2022-08-05T10:07:42;9.70;;;7.25;;
35418;SDS011;21525;41.240;16.500;2022-08-05T10:10:08;11.88;;;7.28;;
35418;SDS011;21525;41.240;16.500;2022-08-05T10:12:45;12.52;;;7.60;;
35418;SDS011;21525;41.240;16.500;2022-08-05T10:15:19;13.15;;;8.20;;
35418;SDS011;21525;41.240;16.500;2022-08-05T10:23:19;13.45;;;10.82;;
35418;SDS011;21525;41.240;16.500;2022-08-05T10:25:53;13.77;;;8.57;;
35418;SDS011;21525;41.240;16.500;2022-08-05T10:28:21;12.32;;;9.02;;
35418;SDS011;21525;41.240;16.500;2022-08-05T10:30:47;12.60;;;9.02;;
35418;SDS011;21525;41.240;16.500;2022-08-05T10:33:13;13.18;;;10.02;;
35418;SDS011;21525;41.240;16.500;2022-08-05T10:35:39;16.30;;;12.48;;
35418;SDS011;21525;41.240;16.500;2022-08-05T10:38:05;17.27;;;15.25;;
35418;SDS011;21525;41.240;16.500;2022-08-05T10:46:16;12.52;;;8.75;;
35418;SDS011;21525;41.240;16.500;2022-08-05T10:48:44;10.32;;;8.07;;
35418;SDS011;21525;41.240;16.500;2022-08-05T10:53:57;15.48;;;9.40;;
35418;SDS011;21525;41.240;16.500;2022-08-05T10:56:27;9.73;;;8.35;;
35418;SDS011;21525;41.240;16.500;2022-08-05T11:01:34;7.97;;;6.20;;
35418;SDS011;21525;41.240;16.500;2022-08-05T11:09:35;7.15;;;4.72;;
35418;SDS011;21525;41.240;16.500;2022-08-05T11:15:06;4.80;;;3.83;;
35418;SDS011;21525;41.240;16.500;2022-08-05T11:17:37;8.77;;;4.28;;
35418;SDS011;21525;41.240;16.500;2022-08-05T11:20:04;7.78;;;3.85;;
35418;SDS011;21525;41.240;16.500;2022-08-05T11:22:39;5.22;;;3.50;;
35418;SDS011;21525;41.240;16.500;2022-08-05T11:25:29;6.57;;;4.15;;
35418;SDS011;21525;41.240;16.500;2022-08-05T11:35:55;6.15;;;3.45;;
35418;SDS011;21525;41.240;16.500;2022-08-05T11:38:56;4.50;;;3.20;;
35418;SDS011;21525;41.240;16.500;2022-08-05T11:41:22;3.70;;;3.30;;
35418;SDS011;21525;41.240;16.500;2022-08-05T11:43:59;4.00;;;3.30;;
35418;SDS011;21525;41.240;16.500;2022-08-05T11:46:27;3.58;;;3.17;;
35418;SDS011;21525;41.240;16.500;2022-08-05T11:48:56;3.47;;;3.17;;
35418;SDS011;21525;41.240;16.500;2022-08-05T11:51:23;4.38;;;3.53;;
35418;SDS011;21525;41.240;16.500;2022-08-05T11:53:51;4.10;;;3.22;;
35418;SDS011;21525;41.240;16.500;2022-08-05T11:56:18;3.75;;;3.38;;
35418;SDS011;21525;41.240;16.500;2022-08-05T11:58:45;3.90;;;3.60;;
35418;SDS011;21525;41.240;16.500;2022-08-05T12:01:19;5.90;;;3.27;;
35418;SDS011;21525;41.240;16.500;2022-08-05T12:03:53;5.13;;;3.50;;
35418;SDS011;21525;41.240;16.500;2022-08-05T12:06:21;5.18;;;3.28;;
35418;SDS011;21525;41.240;16.500;2022-08-05T12:08:50;4.00;;;3.60;;
35418;SDS011;21525;41.240;16.500;2022-08-05T12:11:21;6.68;;;3.97;;
35418;SDS011;21525;41.240;16.500;2022-08-05T12:13:52;5.27;;;3.30;;
35418;SDS011;21525;41.240;16.500;2022-08-05T12:16:35;4.43;;;3.75;;
35418;SDS011;21525;41.240;16.500;2022-08-05T12:19:03;4.88;;;3.63;;
35418;SDS011;21525;41.240;16.500;2022-08-05T12:21:34;4.60;;;3.40;;
35418;SDS011;21525;41.240;16.500;2022-08-05T12:26:32;5.97;;;3.67;;
35418;SDS011;21525;41.240;16.500;2022-08-05T12:29:04;4.57;;;3.55;;
35418;SDS011;21525;41.240;16.500;2022-08-05T12:31:32;3.97;;;3.37;;
35418;SDS011;21525;41.240;16.500;2022-08-05T12:34:02;6.57;;;3.85;;
35418;SDS011;21525;41.240;16.500;2022-08-05T12:36:31;3.92;;;3.53;;
35418;SDS011;21525;41.240;16.500;2022-08-05T12:38:58;5.35;;;4.10;;
35418;SDS011;21525;41.240;16.500;2022-08-05T12:41:29;5.80;;;4.03;;
35418;SDS011;21525;41.240;16.500;2022-08-05T12:43:57;4.60;;;3.53;;
35418;SDS011;21525;41.240;16.500;2022-08-05T12:46:26;4.75;;;3.70;;
35418;SDS011;21525;41.240;16.500;2022-08-05T12:49:00;6.95;;;3.80;;
35418;SDS011;21525;41.240;16.500;2022-08-05T12:51:43;3.80;;;2.77;;
35418;SDS011;21525;41.240;16.500;2022-08-05T12:54:23;4.10;;;3.40;;
35418;SDS011;21525;41.240;16.500;2022-08-05T12:56:52;3.55;;;3.22;;
35418;SDS011;21525;41.240;16.500;2022-08-05T12:59:23;5.88;;;3.28;;
35418;SDS011;21525;41.240;16.500;2022-08-05T13:01:54;4.97;;;3.05;;
35418;SDS011;21525;41.240;16.500;2022-08-05T13:04:29;5.30;;;3.65;;
35418;SDS011;21525;41.240;16.500;2022-08-05T13:06:57;4.60;;;2.95;;
35418;SDS011;21525;41.240;16.500;2022-08-05T13:09:25;4.00;;;3.45;;
35418;SDS011;21525;41.240;16.500;2022-08-05T13:11:55;4.80;;;3.00;;
35418;SDS011;21525;41.240;16.500;2022-08-05T13:14:27;3.75;;;2.92;;
35418;SDS011;21525;41.240;16.500;2022-08-05T13:16:59;4.45;;;3.47;;
35418;SDS011;21525;41.240;16.500;2022-08-05T13:19:25;3.42;;;3.13;;
35418;SDS011;21525;41.240;16.500;2022-08-05T13:21:53;4.65;;;3.33;;
35418;SDS011;21525;41.240;16.500;2022-08-05T13:24:20;4.05;;;3.65;;
35418;SDS011;21525;41.240;16.500;2022-08-05T13:26:48;4.28;;;2.80;;
35418;SDS011;21525;41.240;16.500;2022-08-05T13:29:15;4.25;;;2.90;;
35418;SDS011;21525;41.240;16.500;2022-08-05T13:31:41;4.28;;;3.08;;
35418;SDS011;21525;41.240;16.500;2022-08-05T13:34:08;4.82;;;3.20;;
35418;SDS011;21525;41.240;16.500;2022-08-05T13:36:35;3.20;;;2.90;;
35418;SDS011;21525;41.240;16.500;2022-08-05T13:39:01;3.47;;;3.08;;
35418;SDS011;21525;41.240;16.500;2022-08-05T13:41:28;3.47;;;3.00;;
35418;SDS011;21525;41.240;16.500;2022-08-05T13:43:54;3.80;;;3.13;;
35418;SDS011;21525;41.240;16.500;2022-08-05T13:46:21;4.70;;;3.47;;
35418;SDS011;21525;41.240;16.500;2022-08-05T13:48:48;3.85;;;3.20;;
35418;SDS011;21525;41.240;16.500;2022-08-05T13:51:14;6.05;;;3.45;;
35418;SDS011;21525;41.240;16.500;2022-08-05T13:53:40;3.60;;;3.20;;
35418;SDS011;21525;41.240;16.500;2022-08-05T13:56:07;4.25;;;2.97;;
35418;SDS011;21525;41.240;16.500;2022-08-05T13:58:33;4.18;;;2.95;;
35418;SDS011;21525;41.240;16.500;2022-08-05T14:01:00;7.35;;;3.30;;
35418;SDS011;21525;41.240;16.500;2022-08-05T14:03:26;4.95;;;3.28;;
35418;SDS011;21525;41.240;16.500;2022-08-05T14:05:52;3.72;;;3.25;;
35418;SDS011;21525;41.240;16.500;2022-08-05T14:08:19;3.20;;;2.92;;
35418;SDS011;21525;41.240;16.500;2022-08-05T14:10:45;4.00;;;3.58;;
35418;SDS011;21525;41.240;16.500;2022-08-05T14:13:11;6.57;;;3.28;;
35418;SDS011;21525;41.240;16.500;2022-08-05T14:15:37;7.20;;;3.83;;
35418;SDS011;21525;41.240;16.500;2022-08-05T14:18:03;3.30;;;3.00;;
35418;SDS011;21525;41.240;16.500;2022-08-05T14:20:29;5.10;;;3.45;;
35418;SDS011;21525;41.240;16.500;2022-08-05T14:22:56;4.38;;;3.42;;
35418;SDS011;21525;41.240;16.500;2022-08-05T14:25:23;5.57;;;3.17;;
35418;SDS011;21525;41.240;16.500;2022-08-05T14:27:49;4.07;;;3.35;;
35418;SDS011;21525;41.240;16.500;2022-08-05T14:30:16;5.65;;;3.80;;
35418;SDS011;21525;41.240;16.500;2022-08-05T14:32:42;6.50;;;3.17;;
35418;SDS011;21525;41.240;16.500;2022-08-05T14:35:09;3.45;;;3.15;;
35418;SDS011;21525;41.240;16.500;2022-08-05T14:37:36;4.22;;;3.53;;
35418;SDS011;21525;41.240;16.500;2022-08-05T14:40:03;5.60;;;3.30;;
35418;SDS011;21525;41.240;16.500;2022-08-05T14:42:30;5.00;;;3.28;;
35418;SDS011;21525;41.240;16.500;2022-08-05T14:44:56;3.33;;;3.03;;
35418;SDS011;21525;41.240;16.500;2022-08-05T14:47:22;3.85;;;3.20;;
35418;SDS011;21525;41.240;16.500;2022-08-05T14:49:48;3.35;;;3.05;;
35418;SDS011;21525;41.240;16.500;2022-08-05T14:52:14;5.10;;;3.22;;
35418;SDS011;21525;41.240;16.500;2022-08-05T14:54:40;3.72;;;3.05;;
35418;SDS011;21525;41.240;16.500;2022-08-05T14:57:07;5.15;;;3.63;;
35418;SDS011;21525;41.240;16.500;2022-08-05T14:59:33;5.88;;;3.25;;
35418;SDS011;21525;41.240;16.500;2022-08-05T15:01:59;4.45;;;3.05;;
35418;SDS011;21525;41.240;16.500;2022-08-05T15:04:25;4.93;;;3.47;;
35418;SDS011;21525;41.240;16.500;2022-08-05T15:06:52;6.07;;;3.20;;
35418;SDS011;21525;41.240;16.500;2022-08-05T15:09:18;3.70;;;2.83;;
35418;SDS011;21525;41.240;16.500;2022-08-05T15:11:45;5.90;;;3.90;;
35418;SDS011;21525;41.240;16.500;2022-08-05T15:14:11;5.03;;;3.60;;
35418;SDS011;21525;41.240;16.500;2022-08-05T15:16:37;4.90;;;3.38;;
35418;SDS011;21525;41.240;16.500;2022-08-05T15:19:03;4.15;;;2.95;;
35418;SDS011;21525;41.240;16.500;2022-08-05T15:21:29;4.75;;;3.85;;
35418;SDS011;21525;41.240;16.500;2022-08-05T15:23:55;3.60;;;3.30;;
35418;SDS011;21525;41.240;16.500;2022-08-05T15:26:21;4.03;;;3.50;;
35418;SDS011;21525;41.240;16.500;2022-08-05T15:28:47;5.88;;;3.65;;
35418;SDS011;21525;41.240;16.500;2022-08-05T15:31:12;5.50;;;3.15;;
35418;SDS011;21525;41.240;16.500;2022-08-05T15:33:38;4.50;;;3.30;;
35418;SDS011;21525;41.240;16.500;2022-08-05T15:36:04;4.88;;;3.20;;